Main page
METAR-TAF:

METAR-TAF

Airports :

Wakkanai Airport

Wakkanai, Japan

latitude: 45-24N, longitude: 141-48E, elevation: 8 m

Current weather observation

The report was made 31 minutes ago, at 05:00 UTC
Wind 13 kt from the West/Northwest
Temperature 9°C
Humidity 66%
Pressure 1015 hPa
Visibility 10 km or more
Few clouds at a height of 3000 ft
Broken clouds at a height of 4000 ft

METAR: RJCW 230500Z 30013KT 9999 FEW030 BKN040 09/03 Q1015

Time: 14:31 (05:31 UTC)


TAF: missing

Weather observations and forecasts of more than 4000 airports (METAR and TAF reports).

The available stations are represented by yellow and red dots on the map.

Hover mouse over dot to see the name of the station.

Then click to see weather observations and forecasts.

To change the map : click on the green buttons with a black cross to zoom in, on the green button with a dash to zoom out, or on the green arrows for adjacent maps.


METAR-TAF: